createdAt,value
2017-01-28T00:00:07.866Z,61.68
2017-01-28T00:00:34.011Z,61.68
2017-01-28T00:01:00.146Z,61.71
2017-01-28T00:01:26.312Z,61.8
2017-01-28T00:01:52.475Z,62.05
2017-01-28T00:02:18.600Z,62.18
2017-01-28T00:02:44.702Z,62.46
2017-01-28T00:03:10.871Z,62.46
2017-01-28T00:03:37.023Z,61.99
2017-01-28T00:04:03.143Z,62.46
2017-01-28T00:04:29.251Z,62.46
2017-01-28T00:04:55.418Z,62.34
2017-01-28T00:05:21.556Z,62.15
2017-01-28T00:05:47.710Z,62.62
2017-01-28T00:06:13.838Z,62.53
2017-01-28T00:06:39.957Z,62.34
2017-01-28T00:07:06.075Z,63.2
2017-01-28T00:07:32.246Z,63.2
2017-01-28T00:07:58.342Z,62.91
2017-01-28T00:08:24.499Z,63.01
2017-01-28T00:08:50.622Z,63.29
2017-01-28T00:09:16.774Z,63.57
2017-01-28T00:09:42.882Z,63.39
2017-01-28T00:10:09.014Z,63.48
2017-01-28T00:10:35.248Z,62.91
2017-01-28T00:11:01.389Z,63.39
2017-01-28T00:11:27.516Z,63.29
2017-01-28T00:11:53.615Z,63.39
2017-01-28T00:12:19.816Z,63.76
2017-01-28T00:12:45.943Z,63.29
2017-01-28T00:13:12.180Z,63.2
2017-01-28T00:13:38.295Z,63.67
2017-01-28T00:14:04.451Z,63.39
2017-01-28T00:14:30.690Z,63.29
2017-01-28T00:14:56.834Z,62.72
2017-01-28T00:15:22.950Z,62.34
2017-01-28T00:15:49.148Z,62.62
2017-01-28T00:16:15.312Z,62.72
2017-01-28T00:16:41.679Z,62.62
2017-01-28T00:17:07.852Z,62.62
2017-01-28T00:17:34.006Z,62.62
2017-01-28T00:18:00.100Z,62.24
2017-01-28T00:18:26.236Z,61.87
2017-01-28T00:18:52.375Z,61.77
2017-01-28T00:19:18.468Z,61.87
2017-01-28T00:19:44.645Z,61.77
2017-01-28T00:20:10.732Z,61.58
2017-01-28T00:20:36.930Z,62.43
2017-01-28T00:21:03.121Z,62.34
2017-01-28T00:21:29.307Z,62.53
2017-01-28T00:21:55.453Z,62.34
2017-01-28T00:22:21.618Z,62.34
2017-01-28T00:22:47.794Z,62.82
2017-01-28T00:23:13.943Z,62.34
2017-01-28T00:23:40.077Z,62.62
2017-01-28T00:24:06.206Z,62.62
2017-01-28T00:24:32.302Z,62.82
2017-01-28T00:24:58.426Z,62.24
2017-01-28T00:25:24.536Z,61.87
2017-01-28T00:25:50.768Z,62.05
2017-01-28T00:26:16.878Z,61.87
2017-01-28T00:26:43.018Z,61.96
2017-01-28T00:27:09.118Z,61.39
2017-01-28T00:27:35.298Z,61.68
2017-01-28T00:28:01.390Z,61.68
2017-01-28T00:28:27.555Z,61.77
2017-01-28T00:28:53.682Z,61.77
2017-01-28T00:29:19.837Z,61.58
2017-01-28T00:29:45.974Z,61.2
2017-01-28T00:30:12.157Z,61.11
2017-01-28T00:30:38.351Z,60.92
2017-01-28T00:31:04.459Z,60.35
2017-01-28T00:31:30.635Z,60.53
2017-01-28T00:31:56.798Z,60.25
2017-01-28T00:32:52.761Z,60.44
2017-01-28T00:33:18.889Z,60.35
2017-01-28T00:33:44.988Z,60.35
2017-01-28T00:34:11.203Z,60.35
2017-01-28T00:34:37.370Z,60.63
2017-01-28T00:35:03.476Z,60.44
2017-01-28T00:35:29.581Z,60.53
2017-01-28T00:35:55.770Z,60.63
2017-01-28T00:36:21.938Z,60.25
2017-01-28T00:36:48.057Z,60.53
2017-01-28T00:37:14.236Z,60.25
2017-01-28T00:37:40.393Z,59.97
2017-01-28T00:38:06.539Z,59.68
2017-01-28T00:38:32.689Z,59.78
2017-01-28T00:38:58.823Z,59.49
2017-01-28T00:39:24.951Z,59.59
2017-01-28T00:39:51.092Z,59.3
2017-01-28T00:40:17.378Z,59.4
2017-01-28T00:40:43.560Z,59.59
2017-01-28T00:41:09.635Z,59.88
2017-01-28T00:41:35.739Z,59.88
2017-01-28T00:42:01.879Z,59.59
2017-01-28T00:42:28.058Z,59.88
2017-01-28T00:42:54.255Z,59.97
2017-01-28T00:43:20.479Z,59.4
2017-01-28T00:43:46.661Z,59.4
2017-01-28T00:44:12.818Z,59.4
2017-01-28T00:44:38.949Z,59.4
2017-01-28T00:45:05.049Z,59.49
2017-01-28T00:45:31.236Z,59.59
2017-01-28T00:45:57.431Z,59.88
2017-01-28T00:46:23.627Z,59.4
2017-01-28T00:46:49.770Z,60
2017-01-28T00:47:15.969Z,59.88
2017-01-28T00:47:42.152Z,59.11
2017-01-28T00:48:08.294Z,59.4
2017-01-28T00:48:34.376Z,59.43
2017-01-28T00:49:00.493Z,59.14
2017-01-28T00:49:26.689Z,58.92
2017-01-28T00:49:52.785Z,58.58
2017-01-28T00:50:18.912Z,58.92
2017-01-28T00:50:45.072Z,59.24
2017-01-28T00:51:11.226Z,58.58
2017-01-28T00:51:37.361Z,58.29
2017-01-28T00:52:03.472Z,58
2017-01-28T00:52:29.660Z,58
2017-01-28T00:52:55.767Z,58.29
2017-01-28T00:53:21.939Z,58.67
2017-01-28T00:53:48.084Z,58.29
2017-01-28T00:54:14.224Z,58.29
2017-01-28T00:54:40.395Z,58.48
2017-01-28T00:55:06.631Z,57.91
2017-01-28T00:55:32.790Z,57.72
2017-01-28T00:55:58.916Z,57.53
2017-01-28T00:56:25.058Z,57.62
2017-01-28T00:56:51.231Z,57.81
2017-01-28T00:57:17.440Z,58.48
2017-01-28T00:57:43.579Z,58
2017-01-28T00:58:09.731Z,57.91
2017-01-28T00:58:35.840Z,58
2017-01-28T00:59:01.986Z,57.91
2017-01-28T00:59:28.113Z,58.2
2017-01-28T00:59:54.227Z,58.29
2017-01-28T01:00:20.392Z,58.2
2017-01-28T01:00:46.493Z,58.2
2017-01-28T01:01:12.586Z,58.29
2017-01-28T01:01:38.745Z,58.2
2017-01-28T01:02:04.904Z,58.2
2017-01-28T01:02:31.009Z,58.1
2017-01-28T01:02:57.146Z,58.2
2017-01-28T01:03:23.390Z,58.29
2017-01-28T01:03:49.564Z,57.91
2017-01-28T01:04:15.715Z,57.72
2017-01-28T01:04:41.814Z,57.81
2017-01-28T01:05:08.003Z,57.43
2017-01-28T01:05:34.214Z,57.15
2017-01-28T01:06:00.334Z,57.81
2017-01-28T01:06:26.525Z,57.72
2017-01-28T01:06:52.704Z,57.53
2017-01-28T01:07:18.798Z,57.34
2017-01-28T01:07:44.953Z,57.15
2017-01-28T01:08:11.089Z,57.72
2017-01-28T01:08:37.240Z,57.72
2017-01-28T01:09:03.397Z,57.91
2017-01-28T01:09:29.568Z,58.1
2017-01-28T01:09:55.698Z,57.15
2017-01-28T01:10:21.856Z,57.43
2017-01-28T01:10:47.966Z,57.34
2017-01-28T01:11:14.085Z,57.34
2017-01-28T01:11:40.256Z,57.15
2017-01-28T01:12:06.410Z,57.34
2017-01-28T01:12:32.520Z,57.15
2017-01-28T01:12:58.685Z,57.81
2017-01-28T01:13:24.780Z,57.53
2017-01-28T01:13:50.949Z,57.34
2017-01-28T01:14:17.093Z,57.53
2017-01-28T01:14:43.197Z,57.15
2017-01-28T01:15:09.355Z,57.34
2017-01-28T01:15:35.544Z,57.43
2017-01-28T01:16:01.663Z,57.15
2017-01-28T01:16:27.796Z,57.43
2017-01-28T01:16:53.924Z,57.53
2017-01-28T01:17:20.066Z,57.53
2017-01-28T01:17:46.203Z,57.81
2017-01-28T01:18:12.369Z,57.72
2017-01-28T01:18:38.564Z,58.2
2017-01-28T01:19:04.689Z,58.29
2017-01-28T01:19:30.790Z,58
2017-01-28T01:19:56.931Z,58.2
2017-01-28T01:20:23.033Z,58.76
2017-01-28T01:20:49.201Z,57.81
2017-01-28T01:21:15.314Z,57.53
2017-01-28T01:21:41.444Z,57.24
2017-01-28T01:22:07.529Z,57.24
2017-01-28T01:22:33.654Z,57.34
2017-01-28T01:22:59.794Z,57.34
2017-01-28T01:23:25.905Z,57.62
2017-01-28T01:23:52.053Z,57.34
2017-01-28T01:24:18.181Z,57.91
2017-01-28T01:24:44.304Z,57.43
2017-01-28T01:25:10.481Z,57.91
2017-01-28T01:25:36.675Z,58.1
2017-01-28T01:26:02.786Z,58.1
2017-01-28T01:26:28.899Z,58
2017-01-28T01:26:55.066Z,57.34
2017-01-28T01:27:21.219Z,57.34
2017-01-28T01:27:47.375Z,57.43
2017-01-28T01:28:13.473Z,57.43
2017-01-28T01:28:39.639Z,57.53
2017-01-28T01:29:05.780Z,57.72
2017-01-28T01:29:31.949Z,57.72
2017-01-28T01:29:58.111Z,57.72
2017-01-28T01:30:24.223Z,58.1
2017-01-28T01:30:50.390Z,57.81
2017-01-28T01:31:16.579Z,57.91
2017-01-28T01:31:42.670Z,57.53
2017-01-28T01:32:08.787Z,58.1
2017-01-28T01:32:34.888Z,58.86
2017-01-28T01:33:01.026Z,58.48
2017-01-28T01:33:27.154Z,58.29
2017-01-28T01:33:53.346Z,58.2
2017-01-28T01:34:19.508Z,58.2
2017-01-28T01:34:45.677Z,57.81
2017-01-28T01:35:11.795Z,57.53
2017-01-28T01:35:37.892Z,57.34
2017-01-28T01:36:04.028Z,57.24
2017-01-28T01:36:30.151Z,57.62
2017-01-28T01:36:56.266Z,57.24
2017-01-28T01:37:22.439Z,56.96
2017-01-28T01:37:48.624Z,57.24
2017-01-28T01:38:14.781Z,57.43
2017-01-28T01:38:40.931Z,58
2017-01-28T01:39:07.105Z,57.81
2017-01-28T01:39:33.265Z,58.1
2017-01-28T01:39:59.394Z,58
2017-01-28T01:40:25.503Z,58.1
2017-01-28T01:40:51.696Z,58.2
2017-01-28T01:41:17.823Z,58.2
2017-01-28T01:41:43.943Z,58.48
2017-01-28T01:42:10.070Z,58.29
2017-01-28T01:42:36.174Z,58.39
2017-01-28T01:43:02.282Z,58.2
2017-01-28T01:43:28.470Z,58.1
2017-01-28T01:43:54.619Z,57.91
2017-01-28T01:44:20.729Z,57.62
2017-01-28T01:44:46.827Z,57.53
2017-01-28T01:45:12.940Z,57.24
2017-01-28T01:45:39.104Z,57.34
2017-01-28T01:46:05.208Z,57.62
2017-01-28T01:46:31.304Z,57.72
2017-01-28T01:46:57.428Z,57.81
2017-01-28T01:47:23.555Z,57.91
2017-01-28T01:47:49.651Z,57.72
2017-01-28T01:48:15.750Z,57.81
2017-01-28T01:48:41.920Z,57.15
2017-01-28T01:49:08.104Z,57.62
2017-01-28T01:49:34.270Z,57.15
2017-01-28T01:50:00.381Z,56.96
2017-01-28T01:50:26.559Z,56.87
2017-01-28T01:50:52.666Z,57.06
2017-01-28T01:51:18.804Z,57.34
2017-01-28T01:51:44.970Z,57.15
2017-01-28T01:52:11.132Z,57.62
2017-01-28T01:52:37.294Z,57.15
2017-01-28T01:53:03.419Z,57.91
2017-01-28T01:53:29.602Z,57.81
2017-01-28T01:53:55.759Z,57.81
2017-01-28T01:54:21.880Z,57.15
2017-01-28T01:54:48.009Z,57.15
2017-01-28T01:55:14.153Z,56.39
2017-01-28T01:55:40.263Z,57.24
2017-01-28T01:56:06.408Z,57.34
2017-01-28T01:56:32.559Z,57.53
2017-01-28T01:56:58.718Z,57.91
2017-01-28T01:57:24.869Z,57.72
2017-01-28T01:57:51.036Z,58
2017-01-28T01:58:17.177Z,57.06
2017-01-28T01:58:43.307Z,57.15
2017-01-28T01:59:09.396Z,57.24
2017-01-28T01:59:35.552Z,57.91
2017-01-28T02:00:01.680Z,57.81
2017-01-28T02:00:27.813Z,57.43
2017-01-28T02:00:53.907Z,57.72
2017-01-28T02:01:20.021Z,57.53
2017-01-28T02:01:46.187Z,57.81
2017-01-28T02:02:12.392Z,58.29
2017-01-28T02:02:38.487Z,57.91
2017-01-28T02:03:04.642Z,57.72
2017-01-28T02:03:30.745Z,57.43
2017-01-28T02:03:56.855Z,57.34
2017-01-28T02:04:23.007Z,57.72
2017-01-28T02:04:49.176Z,57.24
2017-01-28T02:05:15.320Z,57.15
2017-01-28T02:05:41.471Z,57.24
2017-01-28T02:06:07.562Z,57.72
2017-01-28T02:06:33.707Z,56.87
2017-01-28T02:06:59.834Z,56.39
2017-01-28T02:07:25.960Z,56.29
2017-01-28T02:07:52.110Z,56.68
2017-01-28T02:08:18.243Z,57.24
2017-01-28T02:08:44.410Z,56.68
2017-01-28T02:09:10.562Z,57.15
2017-01-28T02:09:36.700Z,56.77
2017-01-28T02:10:02.791Z,56.2
2017-01-28T02:10:28.958Z,56.1
2017-01-28T02:10:55.062Z,56.01
2017-01-28T02:11:21.190Z,55.82
2017-01-28T02:11:47.325Z,55.54
2017-01-28T02:12:13.500Z,55.63
2017-01-28T02:12:39.627Z,55.25
2017-01-28T02:13:05.742Z,55.35
2017-01-28T02:13:31.903Z,55.54
2017-01-28T02:13:58.054Z,55.54
2017-01-28T02:14:24.176Z,55.73
2017-01-28T02:14:50.333Z,56.01
2017-01-28T02:15:16.504Z,55.91
2017-01-28T02:15:42.584Z,55.82
2017-01-28T02:16:08.680Z,55.44
2017-01-28T02:16:34.817Z,55.63
2017-01-28T02:17:00.934Z,55.44
2017-01-28T02:17:27.096Z,55.35
2017-01-28T02:17:53.207Z,55.25
2017-01-28T02:18:19.356Z,54.78
2017-01-28T02:18:45.549Z,55.82
2017-01-28T02:19:11.643Z,55.91
2017-01-28T02:19:37.770Z,56.01
2017-01-28T02:20:03.904Z,56.1
2017-01-28T02:20:30.025Z,55.91
2017-01-28T02:20:56.197Z,56.77
2017-01-28T02:21:22.332Z,56.87
2017-01-28T02:21:48.490Z,57.34
2017-01-28T02:22:14.637Z,56.87
2017-01-28T02:22:40.785Z,56.96
2017-01-28T02:23:06.968Z,56.87
2017-01-28T02:23:33.106Z,56.49
2017-01-28T02:23:59.225Z,55.44
2017-01-28T02:24:25.355Z,55.54
2017-01-28T02:24:51.512Z,55.91
2017-01-28T02:25:17.608Z,56.01
2017-01-28T02:25:43.721Z,55.91
2017-01-28T02:26:09.859Z,56.01
2017-01-28T02:26:36.020Z,55.63
2017-01-28T02:27:02.164Z,55.35
2017-01-28T02:27:28.332Z,55.35
2017-01-28T02:27:54.520Z,55.35
2017-01-28T02:28:20.608Z,55.06
2017-01-28T02:28:46.760Z,55.16
2017-01-28T02:29:12.849Z,55.35
2017-01-28T02:29:38.986Z,55.73
2017-01-28T02:30:05.114Z,56.1
2017-01-28T02:30:31.286Z,56.29
2017-01-28T02:30:57.466Z,56.77
2017-01-28T02:31:23.596Z,57.15
2017-01-28T02:31:49.741Z,56.87
2017-01-28T02:32:15.869Z,56.58
2017-01-28T02:32:42.060Z,57.24
2017-01-28T02:33:08.195Z,57.43
2017-01-28T02:33:34.369Z,57.34
2017-01-28T02:34:00.540Z,57.53
2017-01-28T02:34:26.726Z,57.34
2017-01-28T02:34:52.911Z,57.15
2017-01-28T02:35:19.003Z,57.15
2017-01-28T02:35:45.161Z,56.96
2017-01-28T02:36:11.326Z,57.34
2017-01-28T02:36:37.469Z,57.53
2017-01-28T02:37:03.567Z,57.34
2017-01-28T02:37:29.742Z,57.62
2017-01-28T02:37:55.921Z,57.81
2017-01-28T02:38:22.121Z,57.72
2017-01-28T02:38:48.272Z,57.43
2017-01-28T02:39:14.447Z,58
2017-01-28T02:39:40.587Z,57.43
2017-01-28T02:40:06.698Z,57.15
2017-01-28T02:40:32.823Z,57.24
2017-01-28T02:40:59.019Z,57.34
2017-01-28T02:41:25.159Z,56.87
2017-01-28T02:41:51.258Z,57.24
2017-01-28T02:42:17.389Z,56.29
2017-01-28T02:42:43.602Z,56.1
2017-01-28T02:43:09.710Z,56.1
2017-01-28T02:43:35.915Z,56.01
2017-01-28T02:44:02.038Z,55.91
2017-01-28T02:44:28.133Z,56.1
2017-01-28T02:44:54.268Z,56.87
2017-01-28T02:45:20.407Z,56.68
2017-01-28T02:45:46.543Z,56.77
2017-01-28T02:46:12.680Z,57.24
2017-01-28T02:46:38.825Z,57.34
2017-01-28T02:47:04.970Z,57.72
2017-01-28T02:47:31.122Z,57.62
2017-01-28T02:47:57.259Z,57.34
2017-01-28T02:48:23.404Z,57.43
2017-01-28T02:48:49.598Z,57.62
2017-01-28T02:49:15.739Z,57.15
2017-01-28T02:49:41.945Z,57.15
2017-01-28T02:50:08.074Z,56.87
2017-01-28T02:50:34.259Z,56.87
2017-01-28T02:51:00.361Z,56.77
2017-01-28T02:51:26.502Z,56.39
2017-01-28T02:51:52.638Z,55.91
2017-01-28T02:52:18.792Z,56.1
2017-01-28T02:52:44.932Z,56.1
2017-01-28T02:53:11.071Z,55.91
2017-01-28T02:53:37.212Z,56.49
2017-01-28T02:54:03.296Z,56.49
2017-01-28T02:54:29.452Z,56.2
2017-01-28T02:54:55.618Z,55.91
2017-01-28T02:55:21.766Z,55.91
2017-01-28T02:55:47.920Z,56.2
2017-01-28T02:56:14.084Z,56.1
2017-01-28T02:56:40.199Z,56.29
2017-01-28T02:57:06.293Z,56.1
2017-01-28T02:57:32.459Z,56.39
2017-01-28T02:57:58.579Z,55.91
2017-01-28T02:58:24.748Z,56.1
2017-01-28T02:58:50.857Z,55.82
2017-01-28T02:59:16.985Z,56.39
2017-01-28T02:59:43.148Z,56.49
2017-01-28T03:00:09.302Z,55.91
2017-01-28T03:00:35.408Z,55.82
2017-01-28T03:01:01.555Z,55.82
2017-01-28T03:01:27.712Z,55.63
2017-01-28T03:01:53.806Z,55.73
2017-01-28T03:02:19.973Z,55.91
2017-01-28T03:02:46.157Z,56.1
2017-01-28T03:03:12.249Z,56.49
2017-01-28T03:03:38.414Z,56.29
2017-01-28T03:04:04.569Z,56.96
2017-01-28T03:04:30.687Z,56.58
2017-01-28T03:04:56.838Z,56.2
2017-01-28T03:05:22.979Z,56.01
2017-01-28T03:05:49.118Z,56.2
2017-01-28T03:06:15.274Z,56.1
2017-01-28T03:06:41.375Z,56.77
2017-01-28T03:07:07.495Z,56.49
2017-01-28T03:07:33.692Z,56.29
2017-01-28T03:07:59.809Z,56.01
2017-01-28T03:08:25.990Z,56.1
2017-01-28T03:08:52.121Z,56.01
2017-01-28T03:09:18.270Z,56.01
2017-01-28T03:09:44.445Z,56.1
2017-01-28T03:10:10.585Z,56.49
2017-01-28T03:10:36.704Z,56.58
2017-01-28T03:11:02.841Z,56.1
2017-01-28T03:11:28.950Z,56.39
2017-01-28T03:11:55.050Z,55.73
2017-01-28T03:12:21.197Z,56.49
2017-01-28T03:12:47.327Z,56.49
2017-01-28T03:13:13.479Z,56.68
2017-01-28T03:13:39.587Z,57.24
2017-01-28T03:14:05.735Z,56.87
2017-01-28T03:14:31.823Z,57.24
2017-01-28T03:14:57.986Z,57.43
2017-01-28T03:15:24.168Z,57.24
2017-01-28T03:15:50.311Z,56.68
2017-01-28T03:16:16.445Z,56.39
2017-01-28T03:16:42.606Z,55.54
2017-01-28T03:17:08.747Z,55.35
2017-01-28T03:17:34.849Z,55.04
2017-01-28T03:18:00.982Z,55.25
2017-01-28T03:18:27.105Z,55.41
2017-01-28T03:18:53.229Z,56.08
2017-01-28T03:19:19.359Z,55.32
2017-01-28T03:19:45.484Z,55.6
2017-01-28T03:20:11.589Z,55.32
2017-01-28T03:20:37.751Z,55.7
2017-01-28T03:21:03.881Z,55.6
2017-01-28T03:21:30.079Z,55.51
2017-01-28T03:21:56.194Z,55.89
2017-01-28T03:22:22.292Z,56.46
2017-01-28T03:22:48.483Z,56.46
2017-01-28T03:23:14.572Z,55.98
2017-01-28T03:23:40.751Z,55.6
2017-01-28T03:24:06.898Z,55.51
2017-01-28T03:24:33.035Z,55.51
2017-01-28T03:24:59.162Z,55.51
2017-01-28T03:25:25.253Z,55.98
2017-01-28T03:25:51.403Z,55.89
2017-01-28T03:26:17.605Z,55.79
2017-01-28T03:26:43.694Z,55.98
2017-01-28T03:27:09.851Z,56.36
2017-01-28T03:27:35.981Z,55.89
2017-01-28T03:28:02.099Z,56.17
2017-01-28T03:28:28.191Z,56.17
2017-01-28T03:28:54.385Z,56.27
2017-01-28T03:29:20.484Z,56.74
2017-01-28T03:29:46.639Z,57.03
2017-01-28T03:30:12.785Z,57.03
2017-01-28T03:30:38.944Z,57.59
2017-01-28T03:31:05.136Z,57.4
2017-01-28T03:31:31.275Z,57.21
2017-01-28T03:31:57.413Z,57.12
2017-01-28T03:32:23.584Z,57.21
2017-01-28T03:32:49.739Z,57.4
2017-01-28T03:33:15.919Z,57.79
2017-01-28T03:33:42.045Z,57.4
2017-01-28T03:34:08.146Z,57.31
2017-01-28T03:34:34.289Z,57.69
2017-01-28T03:35:00.427Z,57.79
2017-01-28T03:35:26.573Z,57.98
2017-01-28T03:35:52.736Z,58.36
2017-01-28T03:36:18.891Z,58.26
2017-01-28T03:36:45.005Z,58.54
2017-01-28T03:37:11.139Z,57.59
2017-01-28T03:37:37.298Z,57.88
2017-01-28T03:38:03.386Z,57.79
2017-01-28T03:38:29.514Z,58.26
2017-01-28T03:38:55.619Z,57.62
2017-01-28T03:39:21.769Z,57.81
2017-01-28T03:39:47.861Z,57.81
2017-01-28T03:40:14.024Z,58.2
2017-01-28T03:40:40.142Z,57.59
2017-01-28T03:41:06.292Z,56.96
2017-01-28T03:41:32.452Z,58.17
2017-01-28T03:41:58.571Z,57.72
2017-01-28T03:42:24.657Z,57.53
2017-01-28T03:42:50.795Z,57.79
2017-01-28T03:43:16.925Z,57.81
2017-01-28T03:43:43.015Z,57.4
2017-01-28T03:44:09.147Z,57.43
2017-01-28T03:44:35.315Z,57.34
2017-01-28T03:45:01.457Z,57.21
2017-01-28T03:45:27.607Z,57.31
2017-01-28T03:45:53.777Z,57.59
2017-01-28T03:46:19.875Z,57.12
2017-01-28T03:46:45.992Z,57.21
2017-01-28T03:47:12.135Z,57.12
2017-01-28T03:47:38.293Z,57.03
2017-01-28T03:48:04.403Z,57.59
2017-01-28T03:48:30.515Z,57.59
2017-01-28T03:48:56.666Z,57.59
2017-01-28T03:49:22.860Z,57.12
2017-01-28T03:49:49.000Z,57.21
2017-01-28T03:50:15.127Z,56.55
2017-01-28T03:50:41.298Z,56.74
2017-01-28T03:51:07.449Z,56.74
2017-01-28T03:51:33.612Z,56.74
2017-01-28T03:51:59.798Z,57.12
2017-01-28T03:52:25.977Z,56.84
2017-01-28T03:52:52.107Z,57.12
2017-01-28T03:53:18.198Z,57.03
2017-01-28T03:53:44.297Z,57.03
2017-01-28T03:54:10.411Z,57.59
2017-01-28T03:54:36.554Z,57.31
2017-01-28T03:55:02.697Z,57.88
2017-01-28T03:55:28.832Z,58.17
2017-01-28T03:55:54.926Z,58.17
2017-01-28T03:56:21.035Z,57.98
2017-01-28T03:56:47.207Z,58.26
2017-01-28T03:57:13.370Z,58.07
2017-01-28T03:57:39.500Z,58.45
2017-01-28T03:58:05.645Z,58.92
2017-01-28T03:58:31.768Z,58.64
2017-01-28T03:58:57.962Z,58.83
2017-01-28T03:59:24.079Z,58.83
2017-01-28T03:59:50.219Z,58.64
2017-01-28T04:00:16.362Z,58.83
2017-01-28T04:00:42.494Z,58.73
2017-01-28T04:01:08.654Z,58.83
2017-01-28T04:01:34.845Z,58.73
2017-01-28T04:02:00.973Z,58.92
2017-01-28T04:02:27.104Z,58.92
2017-01-28T04:02:53.289Z,58.92
2017-01-28T04:03:19.451Z,58.17
2017-01-28T04:03:45.621Z,57.98
2017-01-28T04:04:11.794Z,58.17
2017-01-28T04:04:37.957Z,57.98
2017-01-28T04:05:04.078Z,58.26
2017-01-28T04:05:30.219Z,57.98
2017-01-28T04:05:56.384Z,57.98
2017-01-28T04:06:22.477Z,58.17
2017-01-28T04:06:48.629Z,58.36
2017-01-28T04:07:14.772Z,58.45
2017-01-28T04:07:40.930Z,58.26
2017-01-28T04:08:07.044Z,58.26
2017-01-28T04:08:33.178Z,58.17
2017-01-28T04:08:59.322Z,57.79
2017-01-28T04:09:25.509Z,57.5
2017-01-28T04:09:51.659Z,58.07
2017-01-28T04:10:17.819Z,58.07
2017-01-28T04:10:43.989Z,57.88
2017-01-28T04:11:10.137Z,57.98
2017-01-28T04:11:36.313Z,58.07
2017-01-28T04:12:02.438Z,58.07
2017-01-28T04:12:28.619Z,57.59
2017-01-28T04:12:54.783Z,57.88
2017-01-28T04:13:20.951Z,57.88
2017-01-28T04:13:47.055Z,57.79
2017-01-28T04:14:13.177Z,57.79
2017-01-28T04:14:39.324Z,58.17
2017-01-28T04:15:05.443Z,58.54
2017-01-28T04:15:31.607Z,58.36
2017-01-28T04:15:57.771Z,57.98
2017-01-28T04:16:23.884Z,57.88
2017-01-28T04:16:50.010Z,58.45
2017-01-28T04:17:16.145Z,58.36
2017-01-28T04:17:42.282Z,58.26
2017-01-28T04:18:08.443Z,58.99
2017-01-28T04:18:34.553Z,58.99
2017-01-28T04:19:00.693Z,59.08
2017-01-28T04:19:26.837Z,59.08
2017-01-28T04:19:52.995Z,59.75
2017-01-28T04:20:19.179Z,59.94
2017-01-28T04:20:45.311Z,60.13
2017-01-28T04:21:11.451Z,60.31
2017-01-28T04:21:37.584Z,60.6
2017-01-28T04:22:03.725Z,60.31
2017-01-28T04:22:29.874Z,60.5
2017-01-28T04:22:55.997Z,60.5
2017-01-28T04:23:22.102Z,60.6
2017-01-28T04:23:48.274Z,60.5
2017-01-28T04:24:14.419Z,60.7
2017-01-28T04:24:40.583Z,60.22
2017-01-28T04:25:06.706Z,59.94
2017-01-28T04:25:32.830Z,59.66
2017-01-28T04:25:58.955Z,59.75
2017-01-28T04:26:25.110Z,59.75
2017-01-28T04:26:51.248Z,60.03
2017-01-28T04:27:17.377Z,59.66
2017-01-28T04:27:43.515Z,59.56
2017-01-28T04:28:09.573Z,59.37
2017-01-28T04:28:35.722Z,58.99
2017-01-28T04:29:01.890Z,59.08
2017-01-28T04:29:27.979Z,59.18
2017-01-28T04:29:54.123Z,58.8
2017-01-28T04:30:20.232Z,58.33
2017-01-28T04:30:46.385Z,58.99
2017-01-28T04:31:12.512Z,58.51
2017-01-28T04:31:38.651Z,58.42
2017-01-28T04:32:04.802Z,58.42
2017-01-28T04:32:30.971Z,58.8
2017-01-28T04:32:57.102Z,58.14
2017-01-28T04:33:23.250Z,58.33
2017-01-28T04:33:49.358Z,58.23
2017-01-28T04:34:15.476Z,58.23
2017-01-28T04:34:41.623Z,57.95
2017-01-28T04:35:07.798Z,58.23
2017-01-28T04:35:33.952Z,58.61
2017-01-28T04:36:00.037Z,58.04
2017-01-28T04:36:26.205Z,58.33
2017-01-28T04:36:52.387Z,58.04
2017-01-28T04:37:18.489Z,58.33
2017-01-28T04:37:44.659Z,58.14
2017-01-28T04:38:10.774Z,58.42
2017-01-28T04:38:36.915Z,57.95
2017-01-28T04:39:03.018Z,58.33
2017-01-28T04:39:29.130Z,58.23
2017-01-28T04:39:55.242Z,58.51
2017-01-28T04:40:21.424Z,58.23
2017-01-28T04:40:47.542Z,57.95
2017-01-28T04:41:13.697Z,58.14
2017-01-28T04:41:39.842Z,58.14
2017-01-28T04:42:05.973Z,57.95
2017-01-28T04:42:32.122Z,58.01
2017-01-28T04:42:58.241Z,57.66
2017-01-28T04:43:24.344Z,58.01
2017-01-28T04:43:50.445Z,57.76
2017-01-28T04:44:16.556Z,57.85
2017-01-28T04:44:42.712Z,58.14
2017-01-28T04:45:08.850Z,58.14
2017-01-28T04:45:34.942Z,58.89
2017-01-28T04:46:01.088Z,58.14
2017-01-28T04:46:27.225Z,58.23
2017-01-28T04:46:53.342Z,58.42
2017-01-28T04:47:19.462Z,58.42
2017-01-28T04:47:45.590Z,58.23
2017-01-28T04:48:11.752Z,57.85
2017-01-28T04:48:37.891Z,57.76
2017-01-28T04:49:03.994Z,57.76
2017-01-28T04:49:30.102Z,57.57
2017-01-28T04:49:56.268Z,57.85
2017-01-28T04:50:22.385Z,57.66
2017-01-28T04:50:48.480Z,57.85
2017-01-28T04:51:14.650Z,57.47
2017-01-28T04:51:40.744Z,57.66
2017-01-28T04:52:06.861Z,57.19
2017-01-28T04:52:33.026Z,57.09
2017-01-28T04:52:59.154Z,57.38
2017-01-28T04:53:25.287Z,57.66
2017-01-28T04:53:51.393Z,57.09
2017-01-28T04:54:17.514Z,56.9
2017-01-28T04:54:43.655Z,57.19
2017-01-28T04:55:09.837Z,57.19
2017-01-28T04:55:35.953Z,57.19
2017-01-28T04:56:02.169Z,57.28
2017-01-28T04:56:28.297Z,56.71
2017-01-28T04:56:54.432Z,57.28
2017-01-28T04:57:20.597Z,57.09
2017-01-28T04:57:46.752Z,57.47
2017-01-28T04:58:12.845Z,56.99
2017-01-28T04:58:38.973Z,57.09
2017-01-28T04:59:05.116Z,56.81
2017-01-28T04:59:31.315Z,56.81
2017-01-28T04:59:57.444Z,57.09
2017-01-28T05:00:23.529Z,57.19
2017-01-28T05:00:49.664Z,57.19
2017-01-28T05:01:15.760Z,56.71
2017-01-28T05:01:41.856Z,56.05
2017-01-28T05:02:08.035Z,56.34
2017-01-28T05:02:34.174Z,55.86
2017-01-28T05:03:00.335Z,56.15
2017-01-28T05:03:26.466Z,55.98
2017-01-28T05:03:52.597Z,55.86
2017-01-28T05:04:18.713Z,56.17
2017-01-28T05:04:44.899Z,56.08
2017-01-28T05:05:11.010Z,56.08
2017-01-28T05:05:37.136Z,56.27
2017-01-28T05:06:03.299Z,56.55
2017-01-28T05:06:29.411Z,55.98
2017-01-28T05:06:55.509Z,55.79
2017-01-28T05:07:21.645Z,55.6
2017-01-28T05:07:47.734Z,55.6
2017-01-28T05:08:13.834Z,55.22
2017-01-28T05:08:39.945Z,55.22
2017-01-28T05:09:06.063Z,55.13
2017-01-28T05:09:32.188Z,55.22
2017-01-28T05:09:58.371Z,55.41
2017-01-28T05:10:24.467Z,55.13
2017-01-28T05:10:50.584Z,54.94
2017-01-28T05:11:16.689Z,55.32
2017-01-28T05:11:42.817Z,54.94
2017-01-28T05:12:08.957Z,54.85
2017-01-28T05:12:35.143Z,55.22
2017-01-28T05:13:01.306Z,54.94
2017-01-28T05:13:27.390Z,54.94
2017-01-28T05:13:53.547Z,55.13
2017-01-28T05:14:19.712Z,54.85
2017-01-28T05:14:45.854Z,55.04
2017-01-28T05:15:12.008Z,54.56
2017-01-28T05:15:38.169Z,54.94
2017-01-28T05:16:04.301Z,54.85
2017-01-28T05:16:30.434Z,54.94
2017-01-28T05:16:56.573Z,55.13
2017-01-28T05:17:22.668Z,55.13
2017-01-28T05:17:48.802Z,54.75
2017-01-28T05:18:14.917Z,54.85
2017-01-28T05:18:41.013Z,54.94
2017-01-28T05:19:07.127Z,55.04
2017-01-28T05:19:33.210Z,55.04
2017-01-28T05:19:59.335Z,55.22
2017-01-28T05:20:25.463Z,55.13
2017-01-28T05:20:51.587Z,55.22
2017-01-28T05:21:17.768Z,55.13
2017-01-28T05:21:43.886Z,55.22
2017-01-28T05:22:09.982Z,54.08
2017-01-28T05:22:36.119Z,53.7
2017-01-28T05:23:02.207Z,54.08
2017-01-28T05:23:28.372Z,54.08
2017-01-28T05:23:54.514Z,53.89
2017-01-28T05:24:20.615Z,53.89
2017-01-28T05:24:46.729Z,53.42
2017-01-28T05:25:12.925Z,53.42
2017-01-28T05:25:39.078Z,53.42
2017-01-28T05:26:05.200Z,54.08
2017-01-28T05:26:31.306Z,53.99
2017-01-28T05:26:57.397Z,53.61
2017-01-28T05:27:23.565Z,53.42
2017-01-28T05:27:49.719Z,53.7
2017-01-28T05:28:15.859Z,54.18
2017-01-28T05:28:41.990Z,53.8
2017-01-28T05:29:08.100Z,53.14
2017-01-28T05:29:34.244Z,53.33
2017-01-28T05:30:00.375Z,53.14
2017-01-28T05:30:26.547Z,53.04
2017-01-28T05:30:52.680Z,53.33
2017-01-28T05:31:18.806Z,53.23
2017-01-28T05:31:44.939Z,53.33
2017-01-28T05:32:11.082Z,53.14
2017-01-28T05:32:37.244Z,53.14
2017-01-28T05:33:03.379Z,53.42
2017-01-28T05:33:29.519Z,53.04
2017-01-28T05:33:55.619Z,53.04
2017-01-28T05:34:21.750Z,53.14
2017-01-28T05:34:47.870Z,53.14
2017-01-28T05:35:14.006Z,53.14
2017-01-28T05:35:40.094Z,53.89
2017-01-28T05:36:06.246Z,53.99
2017-01-28T05:36:32.379Z,53.42
2017-01-28T05:36:58.504Z,53.89
2017-01-28T05:37:24.644Z,53.23
2017-01-28T05:37:50.771Z,53.33
2017-01-28T05:38:16.900Z,53.42
2017-01-28T05:38:43.040Z,53.52